createdAt,value
2023-01-17T00:00:00.237Z,6.27
2023-01-17T00:02:31.218Z,6.10
2023-01-17T00:05:18.051Z,8.10
2023-01-17T00:08:04.919Z,9.97
2023-01-17T00:10:32.777Z,10.51
2023-01-17T00:13:04.019Z,9.22
2023-01-17T00:15:32.571Z,7.81
2023-01-17T00:18:00.575Z,6.79
2023-01-17T00:20:51.663Z,6.59
2023-01-17T00:23:42.722Z,8.79
2023-01-17T00:26:20.213Z,10.43
2023-01-17T00:28:48.120Z,10.79
2023-01-17T00:31:16.955Z,9.56
2023-01-17T00:33:44.878Z,8.20
2023-01-17T00:36:13.171Z,7.12
2023-01-17T00:38:42.372Z,6.33
2023-01-17T00:41:15.676Z,6.23
2023-01-17T00:44:02.058Z,8.24
2023-01-17T00:46:48.896Z,10.23
2023-01-17T00:49:35.426Z,10.72
2023-01-17T00:52:22.272Z,9.20
2023-01-17T00:55:08.982Z,7.67
2023-01-17T00:57:55.481Z,6.61
2023-01-17T01:00:42.479Z,6.49
2023-01-17T01:03:30.481Z,8.59
2023-01-17T01:06:17.250Z,10.20
2023-01-17T01:09:03.805Z,10.63
2023-01-17T01:11:50.351Z,9.15
2023-01-17T01:14:37.587Z,7.65
2023-01-17T01:17:24.121Z,6.61
2023-01-17T01:20:10.795Z,6.61
2023-01-17T01:22:57.458Z,8.87
2023-01-17T01:25:43.985Z,10.64
2023-01-17T01:28:33.775Z,11.02
2023-01-17T01:31:24.499Z,9.43
2023-01-17T01:33:53.834Z,7.99
2023-01-17T01:36:22.330Z,7.04
2023-01-17T01:38:50.524Z,6.85
2023-01-17T01:41:18.602Z,8.80
2023-01-17T01:43:56.212Z,10.68
2023-01-17T01:46:38.175Z,11.30
2023-01-17T01:49:18.869Z,10.03
2023-01-17T01:51:54.558Z,8.58
2023-01-17T01:55:13.195Z,7.53
2023-01-17T01:57:47.405Z,7.80
2023-01-17T02:00:36.973Z,9.99
2023-01-17T02:03:14.596Z,11.02
2023-01-17T02:05:43.809Z,9.76
2023-01-17T02:08:18.356Z,8.40
2023-01-17T02:10:46.472Z,7.91
2023-01-17T02:13:19.295Z,9.56
2023-01-17T02:16:09.198Z,11.20
2023-01-17T02:19:11.650Z,11.55
2023-01-17T02:22:14.638Z,9.71
2023-01-17T02:25:20.238Z,8.11
2023-01-17T02:28:31.202Z,6.97
2023-01-17T02:31:27.672Z,7.13
2023-01-17T02:34:02.531Z,9.28
2023-01-17T02:36:47.895Z,10.43
2023-01-17T02:39:31.334Z,10.63
2023-01-17T02:42:09.708Z,9.20
2023-01-17T02:44:44.034Z,7.79
2023-01-17T02:47:24.204Z,6.82
2023-01-17T02:50:23.080Z,6.75
2023-01-17T02:52:56.891Z,9.14
2023-01-17T02:55:30.615Z,10.69
2023-01-17T02:58:30.155Z,11.09
2023-01-17T03:01:47.049Z,9.43
2023-01-17T03:04:34.680Z,7.66
2023-01-17T03:07:11.751Z,6.62
2023-01-17T03:09:43.685Z,6.66
2023-01-17T03:12:13.525Z,8.61
2023-01-17T03:14:41.370Z,10.07
2023-01-17T03:17:09.307Z,10.62
2023-01-17T03:19:37.477Z,10.43
2023-01-17T03:22:05.347Z,9.00
2023-01-17T03:24:33.278Z,7.63
2023-01-17T03:27:01.117Z,7.04
2023-01-17T03:29:28.964Z,8.16
2023-01-17T03:31:56.876Z,9.20
2023-01-17T03:34:25.145Z,9.88
2023-01-17T03:36:52.995Z,10.40
2023-01-17T03:39:20.844Z,10.37
2023-01-17T03:41:48.701Z,9.14
2023-01-17T03:44:16.567Z,7.85
2023-01-17T03:46:44.705Z,6.74
2023-01-17T03:49:12.753Z,6.41
2023-01-17T03:51:40.824Z,7.96
2023-01-17T03:54:08.795Z,8.86
2023-01-17T03:56:36.715Z,9.01
2023-01-17T03:59:04.563Z,9.45
2023-01-17T04:01:32.671Z,9.93
2023-01-17T04:04:00.539Z,10.71
2023-01-17T04:06:28.648Z,10.90
2023-01-17T04:08:56.501Z,9.57
2023-01-17T04:11:24.427Z,8.06
2023-01-17T04:13:52.349Z,7.52
2023-01-17T04:16:25.243Z,9.11
2023-01-17T04:18:53.145Z,10.66
2023-01-17T04:21:21.181Z,11.00
2023-01-17T04:23:49.512Z,9.76
2023-01-17T04:26:17.353Z,8.20
2023-01-17T04:28:45.326Z,7.42
2023-01-17T04:31:17.474Z,8.94
2023-01-17T04:33:46.004Z,10.51
2023-01-17T04:36:14.047Z,11.23
2023-01-17T04:38:41.984Z,11.48
2023-01-17T04:41:10.230Z,10.06
2023-01-17T04:43:38.187Z,8.39
2023-01-17T04:46:10.285Z,7.69
2023-01-17T04:48:38.525Z,9.17
2023-01-17T04:51:06.592Z,10.62
2023-01-17T04:53:34.545Z,11.17
2023-01-17T04:56:03.154Z,9.87
2023-01-17T04:58:31.665Z,8.28
2023-01-17T05:01:05.178Z,7.07
2023-01-17T05:03:34.466Z,6.95
2023-01-17T05:06:02.936Z,8.88
2023-01-17T05:08:30.879Z,10.42
2023-01-17T05:10:58.769Z,11.22
2023-01-17T05:13:26.641Z,11.29
2023-01-17T05:15:56.769Z,9.87
2023-01-17T05:18:27.757Z,8.24
2023-01-17T05:21:04.194Z,7.64
2023-01-17T05:23:33.059Z,9.29
2023-01-17T05:26:01.124Z,10.61
2023-01-17T05:28:29.056Z,11.00
2023-01-17T05:30:57.016Z,9.74
2023-01-17T05:33:24.986Z,8.17
2023-01-17T05:35:53.094Z,7.58
2023-01-17T05:38:21.598Z,8.99
2023-01-17T05:40:50.137Z,10.38
2023-01-17T05:43:18.105Z,10.82
2023-01-17T05:45:49.720Z,9.82
2023-01-17T05:48:17.684Z,8.30
2023-01-17T05:50:45.591Z,7.65
2023-01-17T05:53:16.852Z,9.10
2023-01-17T05:55:45.251Z,10.49
2023-01-17T05:58:21.097Z,10.67
2023-01-17T06:00:49.860Z,9.28
2023-01-17T06:03:17.913Z,7.88
2023-01-17T06:05:47.063Z,7.42
2023-01-17T06:08:16.002Z,9.08
2023-01-17T06:10:44.054Z,10.25
2023-01-17T06:13:15.454Z,10.69
2023-01-17T06:15:43.545Z,9.59
2023-01-17T06:18:15.360Z,8.11
2023-01-17T06:20:43.431Z,7.47
2023-01-17T06:23:14.469Z,8.81
2023-01-17T06:25:45.890Z,10.16
2023-01-17T06:28:17.862Z,10.75
2023-01-17T06:30:47.385Z,9.74
2023-01-17T06:33:16.356Z,8.23
2023-01-17T06:35:50.454Z,7.13
2023-01-17T06:38:19.550Z,7.53
2023-01-17T06:40:47.559Z,9.19
2023-01-17T06:43:16.557Z,10.41
2023-01-17T06:45:44.442Z,11.07
2023-01-17T06:48:12.341Z,11.10
2023-01-17T06:50:40.203Z,9.74
2023-01-17T06:53:08.151Z,8.27
2023-01-17T06:55:40.418Z,7.59
2023-01-17T06:58:10.021Z,8.86
2023-01-17T07:00:40.463Z,10.17
2023-01-17T07:03:21.112Z,11.05
2023-01-17T07:05:50.140Z,10.95
2023-01-17T07:08:19.811Z,9.50
2023-01-17T07:10:49.040Z,8.12
2023-01-17T07:13:16.958Z,7.62
2023-01-17T07:15:44.871Z,9.08
2023-01-17T07:18:12.737Z,10.38
2023-01-17T07:20:43.988Z,10.67
2023-01-17T07:23:12.478Z,9.30
2023-01-17T07:25:40.418Z,7.90
2023-01-17T07:28:09.431Z,7.39
2023-01-17T07:30:37.363Z,8.90
2023-01-17T07:33:05.584Z,10.09
2023-01-17T07:35:34.268Z,10.91
2023-01-17T07:38:02.168Z,10.32
2023-01-17T07:40:30.019Z,8.87
2023-01-17T07:43:13.627Z,7.55
2023-01-17T07:45:53.582Z,7.54
2023-01-17T07:48:24.131Z,9.12
2023-01-17T07:50:57.095Z,10.40
2023-01-17T07:53:31.522Z,10.83
2023-01-17T07:56:05.475Z,9.94
2023-01-17T07:58:35.261Z,8.58
2023-01-17T08:01:05.824Z,7.49
2023-01-17T08:03:36.793Z,7.28
2023-01-17T08:06:05.560Z,8.88
2023-01-17T08:08:33.469Z,10.11
2023-01-17T08:11:01.376Z,10.85
2023-01-17T08:13:29.989Z,10.94
2023-01-17T08:15:57.899Z,9.82
2023-01-17T08:18:25.756Z,8.57
2023-01-17T08:20:54.394Z,8.01
2023-01-17T08:23:23.139Z,9.45
2023-01-17T08:25:51.220Z,10.92
2023-01-17T08:28:20.058Z,11.20
2023-01-17T08:30:48.442Z,10.14
2023-01-17T08:33:16.452Z,8.78
2023-01-17T08:36:02.562Z,8.32
2023-01-17T08:38:30.519Z,10.08
2023-01-17T08:41:05.376Z,11.26
2023-01-17T08:43:33.270Z,11.12
2023-01-17T08:46:01.833Z,9.72
2023-01-17T08:48:29.760Z,8.43
2023-01-17T08:51:04.327Z,8.04
2023-01-17T08:53:32.206Z,9.71
2023-01-17T08:56:04.115Z,11.16
2023-01-17T08:58:33.290Z,11.47
2023-01-17T09:01:03.332Z,10.24
2023-01-17T09:03:33.343Z,8.85
2023-01-17T09:06:11.157Z,8.26
2023-01-17T09:08:40.041Z,9.70
2023-01-17T09:11:12.156Z,11.14
2023-01-17T09:13:41.095Z,11.59
2023-01-17T09:16:09.658Z,10.70
2023-01-17T09:18:37.865Z,9.26
2023-01-17T09:21:16.581Z,8.05
2023-01-17T09:23:45.585Z,8.79
2023-01-17T09:26:29.843Z,10.66
2023-01-17T09:29:00.507Z,11.59
2023-01-17T09:31:28.686Z,10.76
2023-01-17T09:33:58.883Z,9.30
2023-01-17T09:36:34.027Z,8.22
2023-01-17T09:39:04.388Z,8.11
2023-01-17T09:41:44.579Z,9.94
2023-01-17T09:44:46.446Z,11.44
2023-01-17T09:47:18.813Z,11.45
2023-01-17T09:49:47.723Z,10.01
2023-01-17T09:52:21.356Z,8.71
2023-01-17T09:54:51.423Z,8.30
2023-01-17T09:57:53.104Z,9.85
2023-01-17T10:01:00.894Z,11.52
2023-01-17T10:03:43.765Z,11.33
2023-01-17T10:06:47.240Z,9.55
2023-01-17T10:09:39.664Z,8.20
2023-01-17T10:12:42.060Z,8.14
2023-01-17T10:15:27.001Z,10.40
2023-01-17T10:18:29.523Z,11.69
2023-01-17T10:21:35.036Z,10.99
2023-01-17T10:25:04.225Z,9.24
2023-01-17T10:27:41.264Z,7.83
2023-01-17T10:30:36.746Z,8.72
2023-01-17T10:33:26.373Z,10.79
2023-01-17T10:36:03.892Z,11.16
2023-01-17T10:38:42.029Z,9.93
2023-01-17T10:41:29.950Z,8.64
2023-01-17T10:44:06.225Z,8.39
2023-01-17T10:46:45.312Z,10.02
2023-01-17T10:49:22.287Z,10.84
2023-01-17T10:52:33.803Z,9.77
2023-01-17T10:55:30.408Z,8.35
2023-01-17T10:58:00.347Z,9.09
2023-01-17T11:00:59.752Z,10.75
2023-01-17T11:03:29.173Z,10.90
2023-01-17T11:06:24.952Z,9.45
2023-01-17T11:09:05.416Z,8.20
2023-01-17T11:11:36.323Z,8.73
2023-01-17T11:14:16.649Z,10.56
2023-01-17T11:16:44.692Z,11.37
2023-01-17T11:19:29.232Z,10.24
2023-01-17T11:22:05.094Z,8.88
2023-01-17T11:24:51.571Z,8.08
2023-01-17T11:27:33.365Z,9.46
2023-01-17T11:30:22.036Z,10.93
2023-01-17T11:32:59.626Z,11.55
2023-01-17T11:35:45.190Z,10.36
2023-01-17T11:38:22.500Z,8.90
2023-01-17T11:41:15.477Z,8.58
2023-01-17T11:43:57.637Z,10.43
2023-01-17T11:46:29.240Z,10.99
2023-01-17T11:49:01.495Z,9.88
2023-01-17T11:51:35.469Z,8.56
2023-01-17T11:54:39.347Z,8.23
2023-01-17T11:57:27.138Z,10.28
2023-01-17T12:00:22.883Z,11.01
2023-01-17T12:03:27.832Z,9.67
2023-01-17T12:06:07.552Z,8.32
2023-01-17T12:08:54.957Z,8.13
2023-01-17T12:11:39.520Z,10.06
2023-01-17T12:14:55.001Z,11.09
2023-01-17T12:18:22.679Z,9.69
2023-01-17T12:21:35.636Z,7.98
2023-01-17T12:24:39.016Z,7.96
2023-01-17T12:27:15.426Z,10.33
2023-01-17T12:30:40.711Z,11.05
2023-01-17T12:33:45.962Z,9.47
2023-01-17T12:36:21.685Z,8.11
2023-01-17T12:38:49.703Z,8.55
2023-01-17T12:41:29.110Z,10.17
2023-01-17T12:44:01.068Z,10.70
2023-01-17T12:46:49.174Z,9.41
2023-01-17T12:49:26.720Z,8.13
2023-01-17T12:52:34.177Z,7.91
2023-01-17T12:55:17.758Z,9.95
2023-01-17T12:57:57.247Z,10.96
2023-01-17T13:00:29.855Z,10.02
2023-01-17T13:03:18.950Z,8.73
2023-01-17T13:05:48.701Z,7.75
2023-01-17T13:08:34.498Z,7.74
2023-01-17T13:11:27.892Z,9.84
2023-01-17T13:13:57.651Z,10.85
2023-01-17T13:17:09.241Z,9.92
2023-01-17T13:19:37.036Z,8.37
2023-01-17T13:22:17.489Z,7.89
2023-01-17T13:25:27.007Z,9.71
2023-01-17T13:28:10.104Z,11.34
2023-01-17T13:30:56.776Z,10.73
2023-01-17T13:33:35.711Z,9.16
2023-01-17T13:36:23.001Z,8.00
2023-01-17T13:39:29.862Z,8.08
2023-01-17T13:42:30.479Z,10.54
2023-01-17T13:44:58.510Z,11.23
2023-01-17T13:47:27.231Z,10.00
2023-01-17T13:49:56.843Z,8.65
2023-01-17T13:52:24.665Z,7.73
2023-01-17T13:55:00.861Z,7.53
2023-01-17T13:57:40.171Z,9.41
2023-01-17T14:00:21.800Z,11.14
2023-01-17T14:02:52.607Z,10.60
2023-01-17T14:05:41.732Z,9.21
2023-01-17T14:08:22.096Z,8.08
2023-01-17T14:11:03.921Z,7.32
2023-01-17T14:13:35.823Z,8.31
2023-01-17T14:16:29.256Z,10.49
2023-01-17T14:18:57.146Z,11.36
2023-01-17T14:21:35.856Z,10.08
2023-01-17T14:24:18.412Z,8.78
2023-01-17T14:27:21.960Z,7.89
2023-01-17T14:30:03.459Z,7.17
2023-01-17T14:32:36.302Z,8.05
2023-01-17T14:35:06.218Z,10.06
2023-01-17T14:37:51.970Z,10.93
2023-01-17T14:40:30.881Z,9.69
2023-01-17T14:43:11.629Z,8.41
2023-01-17T14:45:42.404Z,7.44
2023-01-17T14:48:20.611Z,7.49
2023-01-17T14:50:51.927Z,9.55
2023-01-17T14:53:31.986Z,11.05
2023-01-17T14:56:12.367Z,11.48
2023-01-17T14:58:41.439Z,10.13
2023-01-17T15:01:17.515Z,8.78
2023-01-17T15:03:53.585Z,7.75
2023-01-17T15:06:38.351Z,7.69
2023-01-17T15:09:31.579Z,9.78
2023-01-17T15:11:59.946Z,11.22
2023-01-17T15:14:34.918Z,10.32
2023-01-17T15:17:24.491Z,8.80
2023-01-17T15:20:00.363Z,7.66
2023-01-17T15:22:29.931Z,8.13
2023-01-17T15:24:59.229Z,9.86
2023-01-17T15:27:27.405Z,10.52
2023-01-17T15:30:01.473Z,9.35
2023-01-17T15:32:31.896Z,7.94
2023-01-17T15:35:02.590Z,6.99
2023-01-17T15:37:34.628Z,7.68
2023-01-17T15:40:14.870Z,9.66
2023-01-17T15:42:46.274Z,10.18
2023-01-17T15:45:22.618Z,8.79
2023-01-17T15:47:50.595Z,7.49
2023-01-17T15:50:26.481Z,6.80
2023-01-17T15:53:04.876Z,8.18
2023-01-17T15:55:39.449Z,9.96
2023-01-17T15:58:27.937Z,10.46
2023-01-17T16:00:56.982Z,9.03
2023-01-17T16:03:30.728Z,7.85
2023-01-17T16:06:03.134Z,6.98
2023-01-17T16:08:39.285Z,6.86
2023-01-17T16:11:11.720Z,8.60
2023-01-17T16:13:42.383Z,10.04
2023-01-17T16:16:12.758Z,10.31
2023-01-17T16:18:41.800Z,9.19
2023-01-17T16:21:25.154Z,8.03
2023-01-17T16:23:54.128Z,7.08
2023-01-17T16:26:23.463Z,6.95
2023-01-17T16:28:52.042Z,8.59
2023-01-17T16:31:20.041Z,10.07
2023-01-17T16:33:50.664Z,10.62
2023-01-17T16:36:20.923Z,9.39
2023-01-17T16:38:51.908Z,8.11
2023-01-17T16:41:21.281Z,7.12
2023-01-17T16:44:03.490Z,6.89
2023-01-17T16:46:31.970Z,8.66
2023-01-17T16:49:01.255Z,10.00
2023-01-17T16:51:29.223Z,10.26
2023-01-17T16:53:57.145Z,9.07
2023-01-17T16:56:25.286Z,7.70
2023-01-17T16:58:53.698Z,6.77
2023-01-17T17:01:22.964Z,6.66
2023-01-17T17:03:51.379Z,8.30
2023-01-17T17:06:20.028Z,9.90
2023-01-17T17:08:48.159Z,10.78
2023-01-17T17:11:23.337Z,9.65
2023-01-17T17:13:52.478Z,8.25
2023-01-17T17:16:26.725Z,7.19
2023-01-17T17:18:58.564Z,7.01
2023-01-17T17:21:28.653Z,8.57
2023-01-17T17:24:00.304Z,9.93
2023-01-17T17:26:36.861Z,10.39
2023-01-17T17:29:10.519Z,8.98
2023-01-17T17:31:41.332Z,7.57
2023-01-17T17:34:13.824Z,7.24
2023-01-17T17:36:42.961Z,8.90
2023-01-17T17:39:15.003Z,9.56
2023-01-17T17:41:45.847Z,8.48
2023-01-17T17:44:14.052Z,7.38
2023-01-17T17:46:43.120Z,7.53
2023-01-17T17:49:11.419Z,9.10
2023-01-17T17:51:40.524Z,9.11
2023-01-17T17:54:15.442Z,7.99
2023-01-17T17:56:46.909Z,6.94
2023-01-17T17:59:18.552Z,7.55
2023-01-17T18:01:50.316Z,9.26
2023-01-17T18:04:19.624Z,9.64
2023-01-17T18:06:47.808Z,8.53
2023-01-17T18:09:16.058Z,7.35
2023-01-17T18:11:44.784Z,6.65
2023-01-17T18:14:15.483Z,7.80
2023-01-17T18:16:45.009Z,9.35
2023-01-17T18:19:24.200Z,9.82
2023-01-17T18:21:53.191Z,8.45
2023-01-17T18:24:23.747Z,7.24
2023-01-17T18:26:57.012Z,6.38
2023-01-17T18:29:27.385Z,5.73
2023-01-17T18:31:56.092Z,6.50
2023-01-17T18:34:29.391Z,8.63
2023-01-17T18:36:58.253Z,9.92
2023-01-17T18:39:29.746Z,9.74
2023-01-17T18:41:58.649Z,8.39
2023-01-17T18:44:30.289Z,7.18
2023-01-17T18:47:02.027Z,6.26
2023-01-17T18:49:30.283Z,6.12
2023-01-17T18:51:58.442Z,7.96
2023-01-17T18:54:28.061Z,9.52
2023-01-17T18:56:58.804Z,9.67
2023-01-17T18:59:56.024Z,8.28
2023-01-17T19:02:37.824Z,6.67
2023-01-17T19:05:08.927Z,5.79
2023-01-17T19:07:36.968Z,5.83
2023-01-17T19:10:33.286Z,7.74
2023-01-17T19:13:09.349Z,9.48
2023-01-17T19:15:37.437Z,9.86
2023-01-17T19:18:05.797Z,8.64
2023-01-17T19:20:35.723Z,7.26
2023-01-17T19:23:04.299Z,6.25
2023-01-17T19:25:36.084Z,6.09
2023-01-17T19:28:04.374Z,7.79
2023-01-17T19:30:42.263Z,8.97
2023-01-17T19:33:10.174Z,8.50
2023-01-17T19:35:38.237Z,7.21
2023-01-17T19:38:06.211Z,6.19
2023-01-17T19:40:34.264Z,5.68
2023-01-17T19:43:02.598Z,7.10
2023-01-17T19:45:30.502Z,9.40
2023-01-17T19:47:58.502Z,10.75
2023-01-17T19:50:27.485Z,10.82
2023-01-17T19:52:55.408Z,9.50
2023-01-17T19:55:26.038Z,8.01
2023-01-17T19:57:54.002Z,6.93
2023-01-17T20:00:29.969Z,6.17
2023-01-17T20:02:58.245Z,6.04
2023-01-17T20:05:26.302Z,7.79
2023-01-17T20:07:54.535Z,9.28
2023-01-17T20:10:25.333Z,9.65
2023-01-17T20:12:55.846Z,8.41
2023-01-17T20:15:25.442Z,7.10
2023-01-17T20:17:54.159Z,6.10
2023-01-17T20:20:22.975Z,5.86
2023-01-17T20:22:52.075Z,7.44
2023-01-17T20:25:20.115Z,8.97
2023-01-17T20:27:48.304Z,9.58
2023-01-17T20:30:20.475Z,8.45
2023-01-17T20:32:49.092Z,7.05
2023-01-17T20:35:20.413Z,5.99
2023-01-17T20:37:52.245Z,5.68
2023-01-17T20:40:20.613Z,7.13
2023-01-17T20:42:48.972Z,8.65
2023-01-17T20:45:17.727Z,9.15
2023-01-17T20:47:45.980Z,8.08
2023-01-17T20:50:13.858Z,6.83
2023-01-17T20:52:41.724Z,5.84
2023-01-17T20:55:10.051Z,5.54
2023-01-17T20:57:37.929Z,7.25
2023-01-17T21:00:09.343Z,8.93
2023-01-17T21:02:37.349Z,9.33
2023-01-17T21:05:06.433Z,8.08
2023-01-17T21:07:34.231Z,6.74
2023-01-17T21:10:02.088Z,5.73
2023-01-17T21:12:31.088Z,5.45
2023-01-17T21:14:58.940Z,6.92
2023-01-17T21:17:27.138Z,8.44
2023-01-17T21:19:54.999Z,9.49
2023-01-17T21:22:22.851Z,9.70
2023-01-17T21:24:50.710Z,8.39
2023-01-17T21:27:18.926Z,7.04
2023-01-17T21:29:46.870Z,5.95
2023-01-17T21:32:17.366Z,5.54
2023-01-17T21:34:45.139Z,6.94
2023-01-17T21:37:13.116Z,8.24
2023-01-17T21:39:41.462Z,8.68
2023-01-17T21:42:09.520Z,7.76
2023-01-17T21:44:38.603Z,6.57
2023-01-17T21:47:06.571Z,5.61
2023-01-17T21:49:34.508Z,5.29
2023-01-17T21:52:02.330Z,6.72
2023-01-17T21:54:50.115Z,8.26
2023-01-17T21:57:40.913Z,9.20
2023-01-17T22:00:16.449Z,8.93
2023-01-17T22:02:46.447Z,7.45
2023-01-17T22:05:16.949Z,6.26
2023-01-17T22:08:04.809Z,5.36
2023-01-17T22:10:33.307Z,5.05
2023-01-17T22:13:01.195Z,6.57
2023-01-17T22:15:29.130Z,8.16
2023-01-17T22:17:57.208Z,8.90
2023-01-17T22:20:25.371Z,8.97
2023-01-17T22:22:53.308Z,7.84
2023-01-17T22:25:21.368Z,6.64
2023-01-17T22:27:49.660Z,5.75
2023-01-17T22:30:19.723Z,5.09
2023-01-17T22:32:47.723Z,4.92
2023-01-17T22:35:15.676Z,6.39
2023-01-17T22:37:44.610Z,8.35
2023-01-17T22:40:13.279Z,9.13
2023-01-17T22:42:41.330Z,8.14
2023-01-17T22:45:10.451Z,6.99
2023-01-17T22:47:40.694Z,6.12
2023-01-17T22:50:09.723Z,5.47
2023-01-17T22:52:37.717Z,4.95
2023-01-17T22:55:06.137Z,4.51
2023-01-17T22:57:34.677Z,4.35
2023-01-17T23:00:02.673Z,5.38
2023-01-17T23:02:33.604Z,7.27
2023-01-17T23:05:01.861Z,8.41
2023-01-17T23:07:31.063Z,8.52
2023-01-17T23:09:59.014Z,7.47
2023-01-17T23:12:26.812Z,6.43
2023-01-17T23:15:13.230Z,5.67
2023-01-17T23:17:59.799Z,5.04
2023-01-17T23:20:27.668Z,4.53
2023-01-17T23:22:56.034Z,4.34
2023-01-17T23:25:24.179Z,5.50
2023-01-17T23:28:10.790Z,7.63
2023-01-17T23:30:41.667Z,8.89
2023-01-17T23:33:13.762Z,7.83
2023-01-17T23:35:46.754Z,6.59
2023-01-17T23:38:26.532Z,5.65
2023-01-17T23:41:28.027Z,4.87
2023-01-17T23:43:58.407Z,4.19
2023-01-17T23:46:35.091Z,4.05
2023-01-17T23:49:05.157Z,6.05
2023-01-17T23:51:33.023Z,8.39
2023-01-17T23:54:05.580Z,9.38
2023-01-17T23:56:33.879Z,8.22
2023-01-17T23:59:02.152Z,6.90
